Time;durP1;ratioP1;P1;durP2;ratioP2;P2;SDS_P1;SDS_P2;PMS_P1;PMS_P2;Temp;Humidity;BMP_temperature;BMP_pressure;BME280_temperature;BME280_humidity;BME280_pressure;Samples;Min_cycle;Max_cycle;Signal;HPM_P1;HPM_P2
2021/04/22 00:00:09;;;;;;;5.10;2.25;;;7.10;95.90;;;;;;5033674;28;20585;-74
2021/04/22 00:02:38;;;;;;;7.95;3.72;;;7.10;95.60;;;;;;5049982;28;20223;-74
2021/04/22 00:05:32;;;;;;;9.32;2.85;;;7.00;95.80;;;;;;5050295;28;20208;-74
2021/04/22 00:07:59;;;;;;;4.75;2.85;;;6.90;95.90;;;;;;5051740;28;20220;-76
2021/04/22 00:10:35;;;;;;;10.43;2.55;;;6.80;96.40;;;;;;5015978;28;20205;-74
2021/04/22 00:13:03;;;;;;;11.10;3.63;;;6.70;96.70;;;;;;5020019;28;20278;-75
2021/04/22 00:15:30;;;;;;;5.72;2.60;;;6.70;97.10;;;;;;5014023;28;20583;-75
2021/04/22 00:17:58;;;;;;;8.82;3.30;;;6.70;97.40;;;;;;5031316;28;20741;-74
2021/04/22 00:20:25;;;;;;;10.80;3.30;;;6.70;97.40;;;;;;5010120;28;20217;-74
2021/04/22 00:22:52;;;;;;;15.00;3.35;;;6.70;97.70;;;;;;4993971;28;20632;-75
2021/04/22 00:25:19;;;;;;;7.10;2.80;;;6.60;97.10;;;;;;5026528;28;20209;-75
2021/04/22 00:27:45;;;;;;;17.42;4.05;;;6.60;97.50;;;;;;5011486;28;20221;-76
2021/04/22 00:30:15;;;;;;;10.13;3.28;;;6.50;97.90;;;;;;5015564;28;20209;-74
2021/04/22 00:32:41;;;;;;;9.63;3.55;;;6.40;98.00;;;;;;4982729;28;20228;-75
2021/04/22 00:35:10;;;;;;;6.13;2.83;;;6.40;98.20;;;;;;5037892;28;20204;-75
2021/04/22 00:37:37;;;;;;;7.60;2.60;;;6.40;98.40;;;;;;5037302;28;20597;-75
2021/04/22 00:40:11;;;;;;;9.90;3.60;;;6.30;98.60;;;;;;5012799;28;20570;-74
2021/04/22 00:42:38;;;;;;;18.48;3.67;;;6.30;98.70;;;;;;5035085;28;20225;-74
2021/04/22 00:45:05;;;;;;;7.28;2.80;;;6.30;98.60;;;;;;5034047;28;20205;-73
2021/04/22 00:47:33;;;;;;;8.93;3.30;;;6.20;98.80;;;;;;5034813;28;20308;-73
2021/04/22 00:50:00;;;;;;;10.00;3.22;;;6.10;98.90;;;;;;5001411;28;20560;-74
2021/04/22 00:52:28;;;;;;;6.35;3.10;;;6.10;99.00;;;;;;5016926;28;20307;-74
2021/04/22 00:54:54;;;;;;;7.30;2.47;;;6.10;98.60;;;;;;5017290;28;20534;-73
2021/04/22 00:57:21;;;;;;;13.13;3.47;;;6.10;98.80;;;;;;5016574;28;20219;-75
2021/04/22 00:59:47;;;;;;;7.30;2.45;;;6.00;98.70;;;;;;5035058;28;20209;-75
2021/04/22 01:02:15;;;;;;;8.38;2.75;;;6.00;98.80;;;;;;5016995;28;20220;-75
2021/04/22 01:04:47;;;;;;;10.82;3.08;;;5.90;98.80;;;;;;5034851;28;20247;-75
2021/04/22 01:07:14;;;;;;;10.23;4.28;;;5.90;98.70;;;;;;5033311;28;20217;-74
2021/04/22 01:09:42;;;;;;;16.05;3.33;;;5.90;98.80;;;;;;5036002;28;20188;-75
2021/04/22 01:12:10;;;;;;;10.48;3.45;;;5.90;99.00;;;;;;5030260;28;20244;-75
2021/04/22 01:14:37;;;;;;;6.22;2.83;;;5.80;99.00;;;;;;5034943;28;20205;-75
2021/04/22 01:17:04;;;;;;;10.85;3.53;;;5.80;99.10;;;;;;5034218;28;20731;-74
2021/04/22 01:19:30;;;;;;;7.90;3.47;;;5.80;99.30;;;;;;5034166;28;20209;-74
2021/04/22 01:21:59;;;;;;;8.50;3.10;;;5.80;99.30;;;;;;5000314;28;20299;-77
2021/04/22 01:24:26;;;;;;;12.82;3.90;;;5.70;99.50;;;;;;5034069;28;20185;-75
2021/04/22 01:26:53;;;;;;;13.10;4.15;;;5.70;99.60;;;;;;5033931;28;20213;-74
2021/04/22 01:29:19;;;;;;;13.32;3.47;;;5.70;99.50;;;;;;5034613;28;20673;-74
2021/04/22 01:31:46;;;;;;;10.35;3.38;;;5.70;99.60;;;;;;5033678;28;20225;-76
2021/04/22 01:34:13;;;;;;;8.90;3.50;;;5.70;99.60;;;;;;5051731;28;20192;-76
2021/04/22 01:36:42;;;;;;;4.78;3.05;;;5.60;99.60;;;;;;5053956;28;20228;-76
2021/04/22 01:39:11;;;;;;;9.00;2.95;;;5.60;99.60;;;;;;5036589;28;20246;-73
2021/04/22 01:41:38;;;;;;;8.98;3.63;;;5.60;99.40;;;;;;5032690;28;20305;-75
2021/04/22 01:44:05;;;;;;;13.07;3.20;;;5.50;99.60;;;;;;5033562;28;20639;-75
2021/04/22 01:46:31;;;;;;;17.33;4.72;;;5.50;99.50;;;;;;5034026;28;20220;-75
2021/04/22 01:48:58;;;;;;;13.55;2.83;;;5.50;99.90;;;;;;5034038;28;20275;-76
2021/04/22 01:51:25;;;;;;;12.15;3.25;;;5.50;99.90;;;;;;5016367;28;20177;-74
2021/04/22 01:53:51;;;;;;;11.13;2.70;;;5.50;99.80;;;;;;5033425;28;20284;-74
2021/04/22 01:56:19;;;;;;;8.27;3.20;;;5.40;99.90;;;;;;5002182;28;20279;-76
2021/04/22 01:58:46;;;;;;;10.20;3.05;;;5.40;99.90;;;;;;5016139;28;20592;-75
2021/04/22 02:01:13;;;;;;;9.70;3.42;;;5.30;99.90;;;;;;5034133;28;20188;-77
2021/04/22 02:03:40;;;;;;;9.60;4.13;;;5.30;99.90;;;;;;5032080;28;20196;-75
2021/04/22 02:06:08;;;;;;;14.93;3.10;;;5.30;99.90;;;;;;5033911;28;20297;-74
2021/04/22 02:08:35;;;;;;;8.05;2.95;;;5.30;99.90;;;;;;5032609;28;20220;-74
2021/04/22 02:11:04;;;;;;;9.88;3.97;;;5.30;99.90;;;;;;5033351;28;20195;-74
2021/04/22 02:13:31;;;;;;;9.27;3.72;;;5.20;99.90;;;;;;4999280;28;20717;-76
2021/04/22 02:15:58;;;;;;;16.65;4.45;;;5.10;99.90;;;;;;5016080;28;20225;-75
2021/04/22 02:18:25;;;;;;;8.27;3.85;;;5.10;99.90;;;;;;5015520;28;20634;-74
2021/04/22 02:20:52;;;;;;;7.63;4.18;;;5.00;99.90;;;;;;5032102;28;20195;-74
2021/04/22 02:23:20;;;;;;;8.80;3.40;;;5.00;99.90;;;;;;5035123;28;20225;-75
2021/04/22 02:25:47;;;;;;;11.32;3.95;;;5.00;99.90;;;;;;5040114;28;20622;-76
2021/04/22 02:28:14;;;;;;;8.88;3.50;;;5.00;99.90;;;;;;5033144;28;20300;-75
2021/04/22 02:30:43;;;;;;;20.20;3.60;;;5.00;99.90;;;;;;5033158;28;20215;-74
2021/04/22 02:33:12;;;;;;;6.40;3.20;;;5.00;99.90;;;;;;5015331;28;20309;-73
2021/04/22 02:35:40;;;;;;;9.75;3.88;;;5.00;99.90;;;;;;5015090;28;20221;-76
2021/04/22 02:38:09;;;;;;;14.32;3.95;;;4.90;99.90;;;;;;5033102;28;20718;-74
2021/04/22 02:40:38;;;;;;;6.90;2.90;;;4.80;99.90;;;;;;5014899;28;20560;-76
2021/04/22 02:43:06;;;;;;;12.98;4.05;;;4.70;99.90;;;;;;5032727;28;20237;-76
2021/04/22 02:45:37;;;;;;;10.98;3.97;;;4.70;99.90;;;;;;5033243;28;20205;-76
2021/04/22 02:48:05;;;;;;;14.25;3.80;;;4.70;99.90;;;;;;5032325;28;20713;-74
2021/04/22 02:50:34;;;;;;;12.57;3.70;;;4.70;99.90;;;;;;5033163;28;20188;-76
2021/04/22 02:53:02;;;;;;;8.63;4.10;;;4.70;99.90;;;;;;5013864;28;20307;-75
2021/04/22 02:55:28;;;;;;;8.80;3.67;;;4.70;99.90;;;;;;5014760;28;20248;-75
2021/04/22 02:58:16;;;;;;;11.48;4.65;;;4.70;99.90;;;;;;5032700;28;20224;-75
2021/04/22 03:00:44;;;;;;;19.00;4.47;;;4.60;99.90;;;;;;5015621;28;20308;-76
2021/04/22 03:03:11;;;;;;;11.70;3.40;;;4.60;99.90;;;;;;5019307;28;20293;-74
2021/04/22 03:05:39;;;;;;;10.93;3.83;;;4.50;99.90;;;;;;5029470;28;20201;-75
2021/04/22 03:08:06;;;;;;;17.52;5.25;;;4.50;99.90;;;;;;5033875;28;20217;-75
2021/04/22 03:10:33;;;;;;;13.23;4.22;;;4.50;99.90;;;;;;5041254;28;20193;-74
2021/04/22 03:13:02;;;;;;;8.93;3.20;;;4.50;99.90;;;;;;5021119;28;20227;-76
2021/04/22 03:15:28;;;;;;;10.45;3.53;;;4.40;99.90;;;;;;5033979;28;20205;-76
2021/04/22 03:17:55;;;;;;;6.75;3.50;;;4.40;99.90;;;;;;5032483;28;20483;-76
2021/04/22 03:20:22;;;;;;;10.60;4.07;;;4.40;99.90;;;;;;5032555;28;20207;-75
2021/04/22 03:22:49;;;;;;;11.30;3.78;;;4.50;99.90;;;;;;5030925;28;20223;-73
2021/04/22 03:25:18;;;;;;;22.05;4.97;;;4.50;99.90;;;;;;5032780;28;20209;-75
2021/04/22 03:27:44;;;;;;;15.82;4.20;;;4.40;99.90;;;;;;5033578;28;20221;-77
2021/04/22 03:30:13;;;;;;;11.77;3.80;;;4.40;99.90;;;;;;5015486;28;20189;-73
2021/04/22 03:32:40;;;;;;;11.75;3.78;;;4.40;99.90;;;;;;5030781;28;20224;-75
2021/04/22 03:35:08;;;;;;;9.70;3.80;;;4.40;99.90;;;;;;5051687;28;20208;-76
2021/04/22 03:37:35;;;;;;;12.77;4.30;;;4.40;99.90;;;;;;5052921;28;20628;-76
2021/04/22 03:40:02;;;;;;;12.88;3.45;;;4.40;99.90;;;;;;5033120;28;20303;-75
2021/04/22 03:42:28;;;;;;;14.32;4.07;;;4.40;99.90;;;;;;5017237;28;20220;-74
2021/04/22 03:44:55;;;;;;;15.80;3.85;;;4.30;99.90;;;;;;5018468;28;20611;-75
2021/04/22 03:47:21;;;;;;;15.43;4.38;;;4.20;99.90;;;;;;5052059;28;20236;-76
2021/04/22 03:49:48;;;;;;;10.52;4.20;;;4.30;99.90;;;;;;5050967;28;20192;-75
2021/04/22 03:52:14;;;;;;;11.05;4.10;;;4.20;99.90;;;;;;5049972;28;20220;-76
2021/04/22 03:54:40;;;;;;;10.75;5.10;;;4.20;99.90;;;;;;5048453;28;20189;-76
2021/04/22 03:57:07;;;;;;;10.30;4.47;;;4.20;99.90;;;;;;5014648;28;20308;-76
2021/04/22 03:59:38;;;;;;;16.13;5.10;;;4.10;99.90;;;;;;5014715;28;20244;-75
2021/04/22 04:02:04;;;;;;;17.27;4.93;;;4.10;99.90;;;;;;5029528;28;20270;-73
2021/04/22 04:04:31;;;;;;;14.10;4.80;;;4.00;99.90;;;;;;4997814;28;20213;-76
2021/04/22 04:06:57;;;;;;;15.80;4.13;;;4.00;99.90;;;;;;5014848;28;20227;-76
2021/04/22 04:09:23;;;;;;;11.93;4.45;;;4.00;99.90;;;;;;5014032;28;20181;-76
2021/04/22 04:11:50;;;;;;;13.27;4.20;;;4.00;99.90;;;;;;5013517;28;20729;-76
2021/04/22 04:14:16;;;;;;;10.93;4.13;;;4.00;99.90;;;;;;5014458;28;20209;-74
2021/04/22 04:16:43;;;;;;;18.02;5.85;;;4.00;99.90;;;;;;5014039;28;20228;-78
2021/04/22 04:19:10;;;;;;;20.42;4.68;;;3.90;99.90;;;;;;5014198;28;20556;-75
2021/04/22 04:21:36;;;;;;;8.27;3.97;;;4.00;99.90;;;;;;5031976;28;20227;-76
2021/04/22 04:24:03;;;;;;;14.18;3.80;;;4.10;99.90;;;;;;5014372;28;20284;-76
2021/04/22 04:26:30;;;;;;;13.45;4.47;;;4.10;99.90;;;;;;5049075;28;20702;-77
2021/04/22 04:28:56;;;;;;;14.13;4.05;;;4.10;99.90;;;;;;5039409;28;20275;-72
2021/04/22 04:31:23;;;;;;;13.80;5.90;;;4.10;99.90;;;;;;5030058;28;20251;-74
2021/04/22 04:33:51;;;;;;;14.65;4.35;;;4.10;99.90;;;;;;5032453;28;20528;-73
2021/04/22 04:36:18;;;;;;;16.25;4.30;;;4.10;99.90;;;;;;5051812;28;20285;-75
2021/04/22 04:38:44;;;;;;;14.32;4.97;;;4.10;99.90;;;;;;5052012;28;20601;-74
2021/04/22 04:41:12;;;;;;;13.68;4.32;;;4.10;99.90;;;;;;5034194;28;20185;-74
2021/04/22 04:43:38;;;;;;;9.20;4.10;;;4.10;99.90;;;;;;5014133;28;20194;-74
2021/04/22 04:46:05;;;;;;;17.85;4.65;;;4.20;99.90;;;;;;5030425;28;20220;-77
2021/04/22 04:48:34;;;;;;;18.55;5.32;;;4.20;99.90;;;;;;5014166;28;20223;-75
2021/04/22 04:51:00;;;;;;;11.15;3.88;;;4.30;99.90;;;;;;4978672;28;20202;-75
2021/04/22 04:53:27;;;;;;;18.40;5.20;;;4.30;99.90;;;;;;5011203;28;20309;-75
2021/04/22 04:55:53;;;;;;;11.38;5.43;;;4.20;99.90;;;;;;5024785;28;20212;-76
2021/04/22 04:58:19;;;;;;;13.13;4.85;;;4.20;99.90;;;;;;5030742;28;20710;-77
2021/04/22 05:00:49;;;;;;;9.35;4.00;;;4.20;99.90;;;;;;5031188;28;20209;-77
2021/04/22 05:03:15;;;;;;;8.43;4.15;;;4.20;99.90;;;;;;5030566;28;20224;-73
2021/04/22 05:05:42;;;;;;;10.30;4.20;;;4.20;99.90;;;;;;5030376;28;20294;-77
2021/04/22 05:08:08;;;;;;;11.48;6.05;;;4.20;99.90;;;;;;5031253;28;20272;-76
2021/04/22 05:10:34;;;;;;;11.93;5.00;;;4.30;99.90;;;;;;5013496;28;20189;-77
2021/04/22 05:13:01;;;;;;;10.32;4.90;;;4.30;99.90;;;;;;4996843;28;20224;-75
2021/04/22 05:15:29;;;;;;;10.65;4.82;;;4.30;99.90;;;;;;5014534;28;20714;-76
2021/04/22 05:17:55;;;;;;;21.45;5.68;;;4.30;99.90;;;;;;5035566;28;20221;-74
2021/04/22 05:20:22;;;;;;;14.25;4.97;;;4.40;99.90;;;;;;5028979;28;20206;-75
2021/04/22 05:22:49;;;;;;;14.45;6.10;;;4.50;99.90;;;;;;5052974;28;20220;-74
2021/04/22 05:25:15;;;;;;;9.25;4.72;;;4.60;99.90;;;;;;5035527;28;20239;-77
2021/04/22 05:27:42;;;;;;;16.48;5.28;;;4.80;99.90;;;;;;5055536;28;20224;-75
2021/04/22 05:30:12;;;;;;;13.38;6.32;;;4.90;99.90;;;;;;5006609;28;20264;-76
2021/04/22 05:32:39;;;;;;;12.23;5.53;;;5.10;99.90;;;;;;5016651;28;20262;-75
2021/04/22 05:35:06;;;;;;;8.95;4.25;;;5.30;99.90;;;;;;5029302;28;20236;-75
2021/04/22 05:37:49;;;;;;;8.98;5.10;;;5.30;99.90;;;;;;5014212;28;20738;-74
2021/04/22 05:40:19;;;;;;;13.70;5.80;;;5.40;99.90;;;;;;5022805;28;20284;-73
2021/04/22 05:42:47;;;;;;;13.63;4.97;;;5.50;99.90;;;;;;5032308;28;20221;-76
2021/04/22 05:45:17;;;;;;;15.38;7.47;;;5.70;99.90;;;;;;5017703;28;20674;-74
2021/04/22 05:47:45;;;;;;;12.38;5.18;;;5.80;99.90;;;;;;5018455;28;20279;-77
2021/04/22 05:50:14;;;;;;;13.25;5.90;;;5.90;99.90;;;;;;5051516;28;20189;-73
2021/04/22 05:52:40;;;;;;;12.40;5.30;;;6.00;99.90;;;;;;5035752;28;20720;-75
2021/04/22 05:55:08;;;;;;;11.77;5.80;;;6.20;99.90;;;;;;5018579;28;20590;-74
2021/04/22 05:57:35;;;;;;;16.10;5.55;;;6.40;99.90;;;;;;5038330;28;20228;-75
2021/04/22 06:00:08;;;;;;;18.05;7.18;;;6.70;99.90;;;;;;5020320;28;20252;-75
2021/04/22 06:02:35;;;;;;;16.80;5.95;;;6.80;99.90;;;;;;5010883;28;20220;-74
2021/04/22 06:05:04;;;;;;;18.13;6.10;;;7.00;99.90;;;;;;5013015;28;20256;-74
2021/04/22 06:07:31;;;;;;;17.30;6.28;;;7.30;99.90;;;;;;5013463;28;20222;-74
2021/04/22 06:10:00;;;;;;;13.95;5.38;;;7.50;98.80;;;;;;5019330;28;20185;-76
2021/04/22 06:12:29;;;;;;;15.52;5.75;;;7.90;96.10;;;;;;5033216;28;20217;-74
2021/04/22 06:14:55;;;;;;;11.32;4.90;;;8.40;95.00;;;;;;5033663;28;20656;-73
2021/04/22 06:17:22;;;;;;;19.03;5.30;;;8.60;94.00;;;;;;5015625;28;20222;-74
2021/04/22 06:19:48;;;;;;;20.37;6.40;;;8.90;91.90;;;;;;5015285;28;20460;-74
2021/04/22 06:22:15;;;;;;;21.13;5.97;;;9.10;91.30;;;;;;5015339;28;20456;-74
2021/04/22 06:24:41;;;;;;;17.03;6.30;;;9.30;91.10;;;;;;5015416;28;20452;-73
2021/04/22 06:27:08;;;;;;;19.63;5.60;;;9.50;89.10;;;;;;5031600;28;20562;-74
2021/04/22 06:29:35;;;;;;;18.50;5.50;;;9.60;87.30;;;;;;5032331;28;20991;-73
2021/04/22 06:32:01;;;;;;;12.80;6.07;;;9.80;86.20;;;;;;5033113;28;20472;-74
2021/04/22 06:34:28;;;;;;;14.40;6.43;;;10.00;80.50;;;;;;5000944;28;20441;-76
2021/04/22 06:36:59;;;;;;;16.33;5.90;;;9.90;82.90;;;;;;4995317;28;20978;-73
2021/04/22 06:39:28;;;;;;;16.97;5.87;;;10.40;77.30;;;;;;5028296;28;20468;-74
2021/04/22 06:41:54;;;;;;;14.57;7.10;;;10.80;74.20;;;;;;5032716;28;20570;-74
2021/04/22 06:44:21;;;;;;;16.20;6.40;;;10.70;72.90;;;;;;5015753;28;20499;-74
2021/04/22 06:46:47;;;;;;;18.90;6.00;;;10.90;72.00;;;;;;5015173;28;20893;-74
2021/04/22 06:49:14;;;;;;;18.93;6.07;;;10.70;73.80;;;;;;5020427;28;20458;-74
2021/04/22 06:51:41;;;;;;;13.43;5.83;;;10.60;72.90;;;;;;5051426;28;20639;-74
2021/04/22 06:54:07;;;;;;;16.57;6.87;;;10.50;75.10;;;;;;5051804;28;20443;-74
2021/04/22 06:56:33;;;;;;;18.57;5.93;;;10.50;73.70;;;;;;5013358;28;20466;-74
2021/04/22 06:59:02;;;;;;;21.63;7.93;;;10.50;74.40;;;;;;5014419;28;20430;-75
2021/04/22 07:01:29;;;;;;;18.20;6.13;;;10.60;75.20;;;;;;4995379;28;20425;-74
2021/04/22 07:03:56;;;;;;;13.50;6.17;;;10.40;75.60;;;;;;5012877;28;20432;-74
2021/04/22 07:06:24;;;;;;;16.20;5.90;;;10.40;77.40;;;;;;5014307;28;20502;-74
2021/04/22 07:08:51;;;;;;;15.23;5.77;;;10.90;74.50;;;;;;5033429;28;20424;-74
2021/04/22 07:11:17;;;;;;;13.97;5.53;;;11.00;70.80;;;;;;5017477;28;20528;-75
2021/04/22 07:13:44;;;;;;;14.20;5.13;;;11.10;69.80;;;;;;4995646;28;20432;-75
2021/04/22 07:16:11;;;;;;;10.40;5.13;;;11.20;69.60;;;;;;5011265;28;20816;-75
2021/04/22 07:18:37;;;;;;;15.73;4.90;;;11.30;67.20;;;;;;5013311;28;20827;-74
2021/04/22 07:21:05;;;;;;;15.00;5.30;;;11.40;65.60;;;;;;4996456;28;20470;-73
2021/04/22 07:23:36;;;;;;;12.63;4.83;;;11.50;66.10;;;;;;5023918;28;20429;-73
2021/04/22 07:26:05;;;;;;;16.27;5.40;;;11.50;64.20;;;;;;5029980;28;20475;-75
2021/04/22 07:28:35;;;;;;;13.33;4.77;;;11.60;64.70;;;;;;5021173;28;20543;-76
2021/04/22 07:31:14;;;;;;;8.43;4.47;;;12.00;63.80;;;;;;5035743;28;20437;-76
2021/04/22 07:33:46;;;;;;;12.47;4.77;;;12.20;63.40;;;;;;5053042;28;20773;-76
2021/04/22 07:36:13;;;;;;;12.97;5.90;;;12.10;63.50;;;;;;5016998;28;20676;-78
2021/04/22 07:38:40;;;;;;;13.77;5.87;;;11.70;64.30;;;;;;5015213;28;20429;-77
2021/04/22 07:41:08;;;;;;;8.70;5.53;;;11.40;64.30;;;;;;5031608;28;20469;-77
2021/04/22 07:43:35;;;;;;;11.67;6.50;;;11.10;64.30;;;;;;5030529;28;20476;-75
2021/04/22 07:46:13;;;;;;;11.50;5.67;;;10.90;65.70;;;;;;4999399;28;20463;-76
2021/04/22 07:48:41;;;;;;;13.10;4.93;;;10.90;66.10;;;;;;4979066;28;20477;-75
2021/04/22 07:51:09;;;;;;;12.33;4.53;;;11.10;67.10;;;;;;5009245;28;20963;-75
2021/04/22 07:53:35;;;;;;;7.97;5.23;;;11.50;65.90;;;;;;4992310;28;20452;-75
2021/04/22 07:56:03;;;;;;;13.23;5.00;;;11.60;65.10;;;;;;4980297;28;20860;-75
2021/04/22 07:58:31;;;;;;;9.73;4.10;;;11.60;64.00;;;;;;4975818;28;21006;-75
2021/04/22 08:00:59;;;;;;;10.00;5.70;;;11.60;62.90;;;;;;4971968;28;20491;-75
2021/04/22 08:03:27;;;;;;;11.27;5.07;;;11.80;64.70;;;;;;4973363;28;20478;-75
2021/04/22 08:05:57;;;;;;;11.73;5.23;;;12.10;63.50;;;;;;4979067;28;20455;-75
2021/04/22 08:08:25;;;;;;;17.80;5.73;;;12.60;59.90;;;;;;4986469;28;20461;-75
2021/04/22 08:10:53;;;;;;;12.00;5.97;;;12.80;58.40;;;;;;4994959;28;20892;-75
2021/04/22 08:13:21;;;;;;;8.83;4.57;;;12.60;59.70;;;;;;4972712;28;20498;-75
2021/04/22 08:15:50;;;;;;;14.03;5.40;;;12.50;60.00;;;;;;4988095;28;21039;-75
2021/04/22 08:18:18;;;;;;;12.57;6.07;;;12.30;62.70;;;;;;4972628;28;20993;-75
2021/04/22 08:20:45;;;;;;;11.70;6.83;;;11.90;64.30;;;;;;4973094;28;20522;-75
2021/04/22 08:23:12;;;;;;;12.97;7.37;;;11.50;63.90;;;;;;4987656;28;20906;-75
2021/04/22 08:25:49;;;;;;;11.53;6.93;;;11.20;64.00;;;;;;4974346;28;20534;-75
2021/04/22 08:28:18;;;;;;;13.60;7.10;;;11.20;66.10;;;;;;5006866;28;20548;-75
2021/04/22 08:30:53;;;;;;;13.77;7.63;;;11.80;64.30;;;;;;5007563;28;20430;-75
2021/04/22 08:33:22;;;;;;;9.33;7.40;;;12.40;62.00;;;;;;4991938;28;20476;-75
2021/04/22 08:35:49;;;;;;;12.63;7.63;;;13.10;60.30;;;;;;4972438;28;20478;-75
2021/04/22 08:38:17;;;;;;;15.13;9.70;;;;;;;;;;4997771;28;20596;-75
2021/04/22 08:40:47;;;;;;;16.23;9.20;;;14.50;53.30;;;;;;4972720;28;20484;-75
2021/04/22 08:43:14;;;;;;;12.03;8.07;;;14.70;54.30;;;;;;4987280;28;20463;-75
2021/04/22 08:45:41;;;;;;;13.00;7.20;;;15.00;52.80;;;;;;4987621;28;20942;-75
2021/04/22 08:48:10;;;;;;;15.40;5.97;;;15.40;51.80;;;;;;4972212;28;20474;-76
2021/04/22 08:50:40;;;;;;;7.60;5.80;;;14.80;50.40;;;;;;4975722;28;20444;-75
2021/04/22 08:53:11;;;;;;;10.33;5.50;;;14.80;51.80;;;;;;4975919;28;21070;-75
2021/04/22 08:55:42;;;;;;;10.40;5.10;;;14.60;52.00;;;;;;4991134;28;20470;-75
2021/04/22 08:58:09;;;;;;;14.10;7.00;;;14.70;50.40;;;;;;4976000;28;20468;-75
2021/04/22 09:00:43;;;;;;;8.80;6.30;;;14.50;50.90;;;;;;4975057;28;20546;-75
2021/04/22 09:03:10;;;;;;;11.73;7.00;;;14.10;52.20;;;;;;4985516;28;20539;-75
2021/04/22 09:05:37;;;;;;;16.13;8.17;;;13.30;54.30;;;;;;4984611;28;20472;-75
2021/04/22 09:08:04;;;;;;;15.73;7.20;;;12.60;57.00;;;;;;4974596;28;20538;-75
2021/04/22 09:10:30;;;;;;;10.70;6.13;;;12.50;58.00;;;;;;4976052;28;20470;-75
2021/04/22 09:13:10;;;;;;;13.03;5.63;;;12.60;58.10;;;;;;4975726;28;20462;-75
2021/04/22 09:15:38;;;;;;;9.20;5.10;;;12.90;56.30;;;;;;4976042;28;20447;-75
2021/04/22 09:18:12;;;;;;;9.80;6.17;;;12.90;57.20;;;;;;4952523;28;20470;-75
2021/04/22 09:20:46;;;;;;;10.87;6.43;;;13.00;55.40;;;;;;4976001;28;20470;-75
2021/04/22 09:23:33;;;;;;;12.40;7.50;;;12.90;55.80;;;;;;4978124;28;20497;-75
2021/04/22 09:26:01;;;;;;;13.07;6.63;;;13.00;55.30;;;;;;4976456;28;20470;-75
2021/04/22 09:28:37;;;;;;;12.90;7.63;;;13.30;54.80;;;;;;4990597;28;20477;-75
2021/04/22 09:31:07;;;;;;;10.20;5.87;;;13.50;53.80;;;;;;4976154;28;20430;-75
2021/04/22 09:33:35;;;;;;;17.03;7.20;;;13.70;53.60;;;;;;4976193;28;20559;-75
2021/04/22 09:36:12;;;;;;;13.53;7.33;;;13.90;54.30;;;;;;4995196;28;20783;-75
2021/04/22 09:38:40;;;;;;;14.47;7.97;;;13.80;53.10;;;;;;4993725;28;20468;-75
2021/04/22 09:41:25;;;;;;;10.80;7.50;;;13.90;53.90;;;;;;5005324;28;20513;-75
2021/04/22 09:44:08;;;;;;;12.37;6.93;;;14.00;52.80;;;;;;5014270;28;20893;-75
2021/04/22 09:46:40;;;;;;;9.73;6.70;;;14.10;57.60;;;;;;5014841;28;20460;-75
2021/04/22 09:49:19;;;;;;;12.83;6.67;;;13.90;54.60;;;;;;5008798;28;20476;-75
2021/04/22 09:51:49;;;;;;;13.87;5.90;;;13.70;54.00;;;;;;4974224;28;20518;-75
2021/04/22 09:54:21;;;;;;;11.63;6.73;;;13.90;51.10;;;;;;5007312;28;20522;-75
2021/04/22 09:56:49;;;;;;;12.07;6.27;;;13.80;52.20;;;;;;4974675;28;20470;-75
2021/04/22 09:59:23;;;;;;;9.77;7.10;;;13.80;49.70;;;;;;4976300;28;20422;-75
2021/04/22 10:02:05;;;;;;;11.13;7.00;;;13.70;52.40;;;;;;4986091;28;20459;-75
2021/04/22 10:04:39;;;;;;;11.57;6.47;;;13.90;53.50;;;;;;4995663;28;20823;-75
2021/04/22 10:07:23;;;;;;;14.30;6.00;;;13.60;51.40;;;;;;4987726;28;20468;-75
2021/04/22 10:10:20;;;;;;;10.57;6.40;;;13.70;53.50;;;;;;4990213;28;20441;-75
2021/04/22 10:12:48;;;;;;;11.67;5.53;;;13.80;47.90;;;;;;4976194;28;20475;-75
2021/04/22 10:15:19;;;;;;;9.13;6.27;;;13.90;50.10;;;;;;4982883;28;21015;-75
2021/04/22 10:17:57;;;;;;;10.60;6.80;;;13.80;50.50;;;;;;4989633;28;20482;-75
2021/04/22 10:20:26;;;;;;;12.80;6.33;;;14.00;49.20;;;;;;4974832;28;20556;-75
2021/04/22 10:22:53;;;;;;;10.90;6.30;;;14.10;49.40;;;;;;4989074;28;20526;-75
2021/04/22 10:25:29;;;;;;;8.50;6.30;;;14.10;51.10;;;;;;4990138;28;21000;-74
2021/04/22 10:28:08;;;;;;;11.70;7.70;;;14.20;51.60;;;;;;4972982;28;20552;-75
2021/04/22 10:30:36;;;;;;;13.93;6.40;;;14.00;52.60;;;;;;4979090;28;20417;-75
2021/04/22 10:33:05;;;;;;;10.97;7.00;;;13.90;49.20;;;;;;4992073;28;20490;-75
2021/04/22 10:35:35;;;;;;;8.63;5.07;;;13.60;51.80;;;;;;4973780;28;20488;-74
2021/04/22 10:38:03;;;;;;;11.80;5.67;;;13.40;52.20;;;;;;4989271;28;20827;-74
2021/04/22 10:40:34;;;;;;;12.60;5.50;;;13.50;52.90;;;;;;4979493;28;20466;-75
2021/04/22 10:43:05;;;;;;;9.50;4.70;;;13.40;51.20;;;;;;4974122;28;20464;-74
2021/04/22 10:45:34;;;;;;;11.60;6.00;;;13.40;51.60;;;;;;4973216;28;20544;-75
2021/04/22 10:48:05;;;;;;;11.53;6.20;;;13.60;54.20;;;;;;4973854;28;20466;-74
2021/04/22 10:50:36;;;;;;;13.37;6.80;;;13.50;54.00;;;;;;4974552;28;21024;-75
2021/04/22 10:53:09;;;;;;;12.83;5.90;;;13.70;56.70;;;;;;4975127;28;21060;-75
2021/04/22 10:55:38;;;;;;;11.83;5.60;;;13.90;53.80;;;;;;4975018;28;20965;-74
2021/04/22 10:58:21;;;;;;;16.10;6.37;;;13.90;52.70;;;;;;4973838;28;20547;-75
2021/04/22 11:00:52;;;;;;;10.47;6.87;;;14.10;51.80;;;;;;4989147;28;20468;-75
2021/04/22 11:03:41;;;;;;;16.83;7.33;;;14.00;48.90;;;;;;4973983;28;20551;-75
2021/04/22 11:06:15;;;;;;;8.27;6.60;;;14.00;49.90;;;;;;4970773;28;20469;-75
2021/04/22 11:08:51;;;;;;;7.50;5.60;;;13.90;54.50;;;;;;4993186;28;20477;-75
2021/04/22 11:11:20;;;;;;;13.20;6.40;;;13.90;52.30;;;;;;4976516;28;20808;-74
2021/04/22 11:13:49;;;;;;;8.80;5.07;;;14.00;50.80;;;;;;4991965;28;20566;-75
2021/04/22 11:16:28;;;;;;;14.17;5.40;;;14.10;50.90;;;;;;4999978;28;20924;-75
2021/04/22 11:18:55;;;;;;;9.07;4.87;;;14.10;50.00;;;;;;4988776;28;21003;-75
2021/04/22 11:21:28;;;;;;;15.23;5.40;;;13.80;51.30;;;;;;4999607;28;21026;-75
2021/04/22 11:24:01;;;;;;;12.10;5.47;;;13.90;52.90;;;;;;4993310;28;20423;-75
2021/04/22 11:26:28;;;;;;;8.40;5.20;;;14.00;53.50;;;;;;4989632;28;20474;-75
2021/04/22 11:28:55;;;;;;;10.20;5.87;;;14.20;52.00;;;;;;4985951;28;20494;-74
2021/04/22 11:31:25;;;;;;;16.80;6.67;;;14.30;51.60;;;;;;4986290;28;20513;-74
2021/04/22 11:34:04;;;;;;;12.07;5.90;;;14.10;51.80;;;;;;4988937;28;20932;-76
2021/04/22 11:36:31;;;;;;;8.40;4.67;;;14.10;54.00;;;;;;4987788;28;20498;-75
2021/04/22 11:39:06;;;;;;;11.80;5.17;;;14.10;52.90;;;;;;4995804;28;20431;-75
2021/04/22 11:41:36;;;;;;;10.77;4.87;;;14.10;55.10;;;;;;4974241;28;20467;-75
2021/04/22 11:44:06;;;;;;;9.83;5.40;;;14.20;53.50;;;;;;4973564;28;20531;-74
2021/04/22 11:46:53;;;;;;;12.57;5.30;;;14.10;52.10;;;;;;4987425;28;20507;-76
2021/04/22 11:49:29;;;;;;;12.77;6.40;;;14.00;51.30;;;;;;4973076;28;20474;-75
2021/04/22 11:51:56;;;;;;;10.63;5.47;;;13.90;56.50;;;;;;4986494;28;20465;-76
2021/04/22 11:54:29;;;;;;;11.60;5.43;;;13.90;54.70;;;;;;4991594;28;20419;-76
2021/04/22 11:57:03;;;;;;;10.10;5.00;;;14.20;53.70;;;;;;4972551;28;20471;-76
2021/04/22 11:59:31;;;;;;;18.07;5.93;;;14.30;53.10;;;;;;4987988;28;20486;-75
2021/04/22 12:02:06;;;;;;;11.70;5.97;;;14.40;52.90;;;;;;4984386;28;20957;-76
2021/04/22 12:04:48;;;;;;;9.83;5.10;;;14.40;50.90;;;;;;4973523;28;20962;-75
2021/04/22 12:07:17;;;;;;;11.80;5.13;;;14.50;50.70;;;;;;4995352;28;20491;-75
2021/04/22 12:09:52;;;;;;;14.67;5.50;;;14.50;52.10;;;;;;4973284;28;20435;-75
2021/04/22 12:12:26;;;;;;;6.90;4.90;;;14.50;48.80;;;;;;4972490;28;20802;-76
2021/04/22 12:14:58;;;;;;;12.37;5.27;;;14.50;50.60;;;;;;4973020;28;20978;-75
2021/04/22 12:17:30;;;;;;;7.73;5.17;;;14.50;50.20;;;;;;4977510;28;20570;-75
2021/04/22 12:20:08;;;;;;;13.10;5.70;;;14.50;51.30;;;;;;4975373;28;20471;-75
2021/04/22 12:22:44;;;;;;;10.63;6.07;;;14.50;52.20;;;;;;4986831;28;20473;-76
2021/04/22 12:25:14;;;;;;;9.33;5.73;;;14.50;50.10;;;;;;4988861;28;20490;-75
2021/04/22 12:27:48;;;;;;;8.00;6.40;;;14.50;51.60;;;;;;4979032;28;21010;-75
2021/04/22 12:30:23;;;;;;;10.50;6.60;;;14.60;53.60;;;;;;4979434;28;20486;-76
2021/04/22 12:32:59;;;;;;;8.23;5.60;;;14.50;52.70;;;;;;4977515;28;20501;-76
2021/04/22 12:35:30;;;;;;;8.33;5.87;;;14.60;50.10;;;;;;4986435;28;20466;-76
2021/04/22 12:38:10;;;;;;;7.70;5.33;;;14.60;50.10;;;;;;4998432;28;21110;-76
2021/04/22 12:40:36;;;;;;;12.07;5.87;;;14.60;48.80;;;;;;4986943;28;20874;-75
2021/04/22 12:43:04;;;;;;;11.07;6.03;;;14.60;49.10;;;;;;4978658;28;20456;-76
2021/04/22 12:45:31;;;;;;;10.57;5.63;;;14.60;49.00;;;;;;4994021;28;21054;-75
2021/04/22 12:48:00;;;;;;;7.33;4.70;;;14.40;47.40;;;;;;4978728;28;20466;-76
2021/04/22 12:50:27;;;;;;;11.80;6.10;;;14.30;49.40;;;;;;4978189;28;20453;-75
2021/04/22 12:53:15;;;;;;;8.63;5.30;;;14.20;50.90;;;;;;4978658;28;20470;-76
2021/04/22 12:55:51;;;;;;;11.97;6.10;;;14.20;50.70;;;;;;4979153;28;20991;-75